sensor_id;sensor_type;location;lat;lon;timestamp;P1;durP1;ratioP1;P2;durP2;ratioP2
73150;SDS011;61354;50.758;6.106;2024-01-15T00:01:01;14.48;;;6.60;;
73150;SDS011;61354;50.758;6.106;2024-01-15T00:03:45;12.43;;;6.25;;
73150;SDS011;61354;50.758;6.106;2024-01-15T00:06:29;17.42;;;7.00;;
73150;SDS011;61354;50.758;6.106;2024-01-15T00:09:13;13.93;;;7.55;;
73150;SDS011;61354;50.758;6.106;2024-01-15T00:11:58;15.80;;;6.78;;
73150;SDS011;61354;50.758;6.106;2024-01-15T00:14:43;14.65;;;5.97;;
73150;SDS011;61354;50.758;6.106;2024-01-15T00:17:27;14.30;;;5.57;;
73150;SDS011;61354;50.758;6.106;2024-01-15T00:20:11;10.23;;;4.07;;
73150;SDS011;61354;50.758;6.106;2024-01-15T00:22:55;17.42;;;6.28;;
73150;SDS011;61354;50.758;6.106;2024-01-15T00:25:40;16.27;;;5.68;;
73150;SDS011;61354;50.758;6.106;2024-01-15T00:28:24;16.05;;;6.70;;
73150;SDS011;61354;50.758;6.106;2024-01-15T00:31:09;7.20;;;3.63;;
73150;SDS011;61354;50.758;6.106;2024-01-15T00:33:52;19.10;;;7.30;;
73150;SDS011;61354;50.758;6.106;2024-01-15T00:36:37;16.73;;;6.82;;
73150;SDS011;61354;50.758;6.106;2024-01-15T00:39:20;14.68;;;5.78;;
73150;SDS011;61354;50.758;6.106;2024-01-15T00:42:05;9.95;;;3.97;;
73150;SDS011;61354;50.758;6.106;2024-01-15T00:44:48;18.85;;;7.03;;
73150;SDS011;61354;50.758;6.106;2024-01-15T00:47:33;13.80;;;5.20;;
73150;SDS011;61354;50.758;6.106;2024-01-15T00:50:17;15.70;;;6.13;;
73150;SDS011;61354;50.758;6.106;2024-01-15T00:53:01;11.63;;;5.43;;
73150;SDS011;61354;50.758;6.106;2024-01-15T00:55:44;10.40;;;3.78;;
73150;SDS011;61354;50.758;6.106;2024-01-15T00:58:28;11.45;;;6.03;;
73150;SDS011;61354;50.758;6.106;2024-01-15T01:01:12;11.52;;;4.88;;
73150;SDS011;61354;50.758;6.106;2024-01-15T01:03:56;7.90;;;3.67;;
73150;SDS011;61354;50.758;6.106;2024-01-15T01:06:40;11.63;;;5.07;;
73150;SDS011;61354;50.758;6.106;2024-01-15T01:09:24;15.52;;;6.00;;
73150;SDS011;61354;50.758;6.106;2024-01-15T01:12:08;14.13;;;5.35;;
73150;SDS011;61354;50.758;6.106;2024-01-15T01:14:52;16.65;;;6.35;;
73150;SDS011;61354;50.758;6.106;2024-01-15T01:17:36;16.27;;;6.28;;
73150;SDS011;61354;50.758;6.106;2024-01-15T01:20:20;7.18;;;4.40;;
73150;SDS011;61354;50.758;6.106;2024-01-15T01:23:04;12.13;;;4.78;;
73150;SDS011;61354;50.758;6.106;2024-01-15T01:25:49;17.30;;;6.85;;
73150;SDS011;61354;50.758;6.106;2024-01-15T01:28:32;8.10;;;4.60;;
73150;SDS011;61354;50.758;6.106;2024-01-15T01:31:16;12.55;;;5.63;;
73150;SDS011;61354;50.758;6.106;2024-01-15T01:34:00;17.80;;;7.00;;
73150;SDS011;61354;50.758;6.106;2024-01-15T01:36:44;18.15;;;6.13;;
73150;SDS011;61354;50.758;6.106;2024-01-15T01:39:29;11.93;;;5.05;;
73150;SDS011;61354;50.758;6.106;2024-01-15T01:42:13;13.77;;;5.53;;
73150;SDS011;61354;50.758;6.106;2024-01-15T01:44:56;16.30;;;7.47;;
73150;SDS011;61354;50.758;6.106;2024-01-15T01:47:41;15.68;;;6.45;;
73150;SDS011;61354;50.758;6.106;2024-01-15T01:50:25;17.77;;;7.63;;
73150;SDS011;61354;50.758;6.106;2024-01-15T01:53:09;8.88;;;4.25;;
73150;SDS011;61354;50.758;6.106;2024-01-15T01:55:54;14.18;;;5.65;;
73150;SDS011;61354;50.758;6.106;2024-01-15T01:58:40;13.55;;;6.85;;
73150;SDS011;61354;50.758;6.106;2024-01-15T02:01:25;13.60;;;6.30;;
73150;SDS011;61354;50.758;6.106;2024-01-15T02:04:09;19.80;;;7.40;;
73150;SDS011;61354;50.758;6.106;2024-01-15T02:06:52;19.58;;;7.30;;
73150;SDS011;61354;50.758;6.106;2024-01-15T02:09:36;12.98;;;5.28;;
73150;SDS011;61354;50.758;6.106;2024-01-15T02:12:20;14.35;;;5.55;;
73150;SDS011;61354;50.758;6.106;2024-01-15T02:15:04;12.93;;;6.68;;
73150;SDS011;61354;50.758;6.106;2024-01-15T02:20:46;19.08;;;5.75;;
73150;SDS011;61354;50.758;6.106;2024-01-15T02:23:30;15.45;;;6.22;;
73150;SDS011;61354;50.758;6.106;2024-01-15T02:26:14;15.85;;;6.93;;
73150;SDS011;61354;50.758;6.106;2024-01-15T02:28:58;13.23;;;6.43;;
73150;SDS011;61354;50.758;6.106;2024-01-15T02:31:42;9.45;;;4.13;;
73150;SDS011;61354;50.758;6.106;2024-01-15T02:34:26;15.50;;;6.65;;
73150;SDS011;61354;50.758;6.106;2024-01-15T02:37:15;14.63;;;6.25;;
73150;SDS011;61354;50.758;6.106;2024-01-15T02:39:59;14.65;;;6.45;;
73150;SDS011;61354;50.758;6.106;2024-01-15T02:42:43;12.55;;;5.18;;
73150;SDS011;61354;50.758;6.106;2024-01-15T02:45:27;15.35;;;6.43;;
73150;SDS011;61354;50.758;6.106;2024-01-15T02:48:11;18.25;;;7.22;;
73150;SDS011;61354;50.758;6.106;2024-01-15T02:50:55;19.80;;;8.57;;
73150;SDS011;61354;50.758;6.106;2024-01-15T02:53:39;15.98;;;6.60;;
73150;SDS011;61354;50.758;6.106;2024-01-15T02:56:23;20.92;;;8.52;;
73150;SDS011;61354;50.758;6.106;2024-01-15T02:59:07;13.00;;;5.93;;
73150;SDS011;61354;50.758;6.106;2024-01-15T03:01:51;18.13;;;7.38;;
73150;SDS011;61354;50.758;6.106;2024-01-15T03:04:35;12.43;;;6.10;;
73150;SDS011;61354;50.758;6.106;2024-01-15T03:07:19;15.23;;;7.20;;
73150;SDS011;61354;50.758;6.106;2024-01-15T03:10:03;15.80;;;7.65;;
73150;SDS011;61354;50.758;6.106;2024-01-15T03:12:48;15.82;;;7.18;;
73150;SDS011;61354;50.758;6.106;2024-01-15T03:15:33;13.82;;;6.35;;
73150;SDS011;61354;50.758;6.106;2024-01-15T03:18:17;15.45;;;6.68;;
73150;SDS011;61354;50.758;6.106;2024-01-15T03:21:01;16.17;;;8.35;;
73150;SDS011;61354;50.758;6.106;2024-01-15T03:23:45;14.70;;;6.18;;
73150;SDS011;61354;50.758;6.106;2024-01-15T03:26:29;17.13;;;7.20;;
73150;SDS011;61354;50.758;6.106;2024-01-15T03:29:13;15.65;;;6.10;;
73150;SDS011;61354;50.758;6.106;2024-01-15T03:31:57;18.08;;;7.28;;
73150;SDS011;61354;50.758;6.106;2024-01-15T03:34:41;14.63;;;6.00;;
73150;SDS011;61354;50.758;6.106;2024-01-15T03:37:25;13.23;;;6.20;;
73150;SDS011;61354;50.758;6.106;2024-01-15T03:40:09;16.83;;;6.00;;
73150;SDS011;61354;50.758;6.106;2024-01-15T03:42:53;11.60;;;5.70;;
73150;SDS011;61354;50.758;6.106;2024-01-15T03:45:37;12.13;;;6.40;;
73150;SDS011;61354;50.758;6.106;2024-01-15T03:48:21;9.82;;;5.63;;
73150;SDS011;61354;50.758;6.106;2024-01-15T03:51:05;13.93;;;7.30;;
73150;SDS011;61354;50.758;6.106;2024-01-15T03:53:49;16.73;;;8.00;;
73150;SDS011;61354;50.758;6.106;2024-01-15T03:56:33;16.65;;;8.13;;
73150;SDS011;61354;50.758;6.106;2024-01-15T03:59:17;13.38;;;6.63;;
73150;SDS011;61354;50.758;6.106;2024-01-15T04:02:01;10.20;;;5.40;;
73150;SDS011;61354;50.758;6.106;2024-01-15T04:04:45;13.50;;;7.45;;
73150;SDS011;61354;50.758;6.106;2024-01-15T04:07:29;14.90;;;6.63;;
73150;SDS011;61354;50.758;6.106;2024-01-15T04:10:13;12.38;;;5.80;;
73150;SDS011;61354;50.758;6.106;2024-01-15T04:12:57;7.90;;;3.70;;
73150;SDS011;61354;50.758;6.106;2024-01-15T04:15:43;12.20;;;6.03;;
73150;SDS011;61354;50.758;6.106;2024-01-15T04:18:27;17.30;;;8.25;;
73150;SDS011;61354;50.758;6.106;2024-01-15T04:21:11;11.82;;;5.63;;
73150;SDS011;61354;50.758;6.106;2024-01-15T04:23:55;16.35;;;7.72;;
73150;SDS011;61354;50.758;6.106;2024-01-15T04:26:39;14.90;;;6.70;;
73150;SDS011;61354;50.758;6.106;2024-01-15T04:29:23;15.02;;;5.25;;
73150;SDS011;61354;50.758;6.106;2024-01-15T04:32:07;12.90;;;6.22;;
73150;SDS011;61354;50.758;6.106;2024-01-15T04:34:51;17.13;;;7.07;;
73150;SDS011;61354;50.758;6.106;2024-01-15T04:37:35;13.13;;;6.13;;
73150;SDS011;61354;50.758;6.106;2024-01-15T04:40:19;15.63;;;7.10;;
73150;SDS011;61354;50.758;6.106;2024-01-15T04:43:03;17.40;;;8.38;;
73150;SDS011;61354;50.758;6.106;2024-01-15T04:45:47;16.50;;;7.55;;
73150;SDS011;61354;50.758;6.106;2024-01-15T04:48:31;14.18;;;5.53;;
73150;SDS011;61354;50.758;6.106;2024-01-15T04:51:15;15.52;;;7.05;;
73150;SDS011;61354;50.758;6.106;2024-01-15T04:53:59;7.63;;;3.58;;
73150;SDS011;61354;50.758;6.106;2024-01-15T04:56:44;15.05;;;6.93;;
73150;SDS011;61354;50.758;6.106;2024-01-15T04:59:28;13.15;;;6.28;;
73150;SDS011;61354;50.758;6.106;2024-01-15T05:02:12;14.32;;;7.68;;
73150;SDS011;61354;50.758;6.106;2024-01-15T05:04:55;14.57;;;7.22;;
73150;SDS011;61354;50.758;6.106;2024-01-15T05:07:41;11.55;;;5.90;;
73150;SDS011;61354;50.758;6.106;2024-01-15T05:10:25;15.60;;;6.93;;
73150;SDS011;61354;50.758;6.106;2024-01-15T05:13:09;12.05;;;5.40;;
73150;SDS011;61354;50.758;6.106;2024-01-15T05:15:53;13.27;;;6.68;;
73150;SDS011;61354;50.758;6.106;2024-01-15T05:18:37;12.00;;;5.50;;
73150;SDS011;61354;50.758;6.106;2024-01-15T05:21:21;11.68;;;5.93;;
73150;SDS011;61354;50.758;6.106;2024-01-15T05:24:04;13.90;;;6.30;;
73150;SDS011;61354;50.758;6.106;2024-01-15T05:26:48;12.98;;;6.03;;
73150;SDS011;61354;50.758;6.106;2024-01-15T05:29:32;12.82;;;5.93;;
73150;SDS011;61354;50.758;6.106;2024-01-15T05:32:16;9.77;;;4.68;;
73150;SDS011;61354;50.758;6.106;2024-01-15T05:35:00;15.40;;;6.55;;
73150;SDS011;61354;50.758;6.106;2024-01-15T05:37:44;12.77;;;6.97;;
73150;SDS011;61354;50.758;6.106;2024-01-15T05:40:29;16.50;;;7.47;;
73150;SDS011;61354;50.758;6.106;2024-01-15T05:43:13;11.30;;;5.32;;
73150;SDS011;61354;50.758;6.106;2024-01-15T05:45:57;7.75;;;4.00;;
73150;SDS011;61354;50.758;6.106;2024-01-15T05:48:41;14.20;;;6.45;;
73150;SDS011;61354;50.758;6.106;2024-01-15T05:51:25;12.07;;;4.07;;
73150;SDS011;61354;50.758;6.106;2024-01-15T05:54:09;12.43;;;6.63;;
73150;SDS011;61354;50.758;6.106;2024-01-15T05:56:53;11.63;;;6.13;;
73150;SDS011;61354;50.758;6.106;2024-01-15T05:59:37;18.52;;;9.52;;
73150;SDS011;61354;50.758;6.106;2024-01-15T06:02:21;16.15;;;8.38;;
73150;SDS011;61354;50.758;6.106;2024-01-15T06:05:05;10.55;;;5.70;;
73150;SDS011;61354;50.758;6.106;2024-01-15T06:07:50;14.15;;;7.10;;
73150;SDS011;61354;50.758;6.106;2024-01-15T06:10:33;13.23;;;6.25;;
73150;SDS011;61354;50.758;6.106;2024-01-15T06:13:17;15.68;;;7.60;;
73150;SDS011;61354;50.758;6.106;2024-01-15T06:16:01;10.65;;;5.82;;
73150;SDS011;61354;50.758;6.106;2024-01-15T06:18:46;6.30;;;4.15;;
73150;SDS011;61354;50.758;6.106;2024-01-15T06:21:30;11.98;;;6.25;;
73150;SDS011;61354;50.758;6.106;2024-01-15T06:24:14;12.10;;;6.80;;
73150;SDS011;61354;50.758;6.106;2024-01-15T06:26:58;10.40;;;5.07;;
73150;SDS011;61354;50.758;6.106;2024-01-15T06:29:44;21.00;;;8.80;;
73150;SDS011;61354;50.758;6.106;2024-01-15T06:32:32;10.68;;;5.10;;
73150;SDS011;61354;50.758;6.106;2024-01-15T06:35:16;9.20;;;5.00;;
73150;SDS011;61354;50.758;6.106;2024-01-15T06:38:00;13.38;;;6.80;;
73150;SDS011;61354;50.758;6.106;2024-01-15T06:40:44;14.27;;;6.88;;
73150;SDS011;61354;50.758;6.106;2024-01-15T06:43:29;13.55;;;5.80;;
73150;SDS011;61354;50.758;6.106;2024-01-15T06:46:15;14.00;;;6.47;;
73150;SDS011;61354;50.758;6.106;2024-01-15T06:49:03;10.38;;;5.22;;
73150;SDS011;61354;50.758;6.106;2024-01-15T06:51:47;15.18;;;7.45;;
73150;SDS011;61354;50.758;6.106;2024-01-15T06:54:31;17.73;;;6.32;;
73150;SDS011;61354;50.758;6.106;2024-01-15T06:57:15;13.43;;;6.22;;
73150;SDS011;61354;50.758;6.106;2024-01-15T06:59:59;16.52;;;7.15;;
73150;SDS011;61354;50.758;6.106;2024-01-15T07:02:44;12.98;;;5.65;;
73150;SDS011;61354;50.758;6.106;2024-01-15T07:05:28;13.75;;;6.57;;
73150;SDS011;61354;50.758;6.106;2024-01-15T07:08:14;17.58;;;8.02;;
73150;SDS011;61354;50.758;6.106;2024-01-15T07:10:58;13.05;;;7.10;;
73150;SDS011;61354;50.758;6.106;2024-01-15T07:13:42;18.50;;;7.93;;
73150;SDS011;61354;50.758;6.106;2024-01-15T07:16:26;13.20;;;6.50;;
73150;SDS011;61354;50.758;6.106;2024-01-15T07:19:11;12.30;;;6.07;;
73150;SDS011;61354;50.758;6.106;2024-01-15T07:21:55;14.85;;;6.82;;
73150;SDS011;61354;50.758;6.106;2024-01-15T07:24:39;10.48;;;5.70;;
73150;SDS011;61354;50.758;6.106;2024-01-15T07:27:23;10.57;;;4.97;;
73150;SDS011;61354;50.758;6.106;2024-01-15T07:30:07;10.27;;;4.72;;
73150;SDS011;61354;50.758;6.106;2024-01-15T07:32:52;11.02;;;5.45;;
73150;SDS011;61354;50.758;6.106;2024-01-15T07:35:36;11.35;;;6.30;;
73150;SDS011;61354;50.758;6.106;2024-01-15T07:38:20;14.15;;;6.72;;
73150;SDS011;61354;50.758;6.106;2024-01-15T07:41:05;10.60;;;4.68;;
73150;SDS011;61354;50.758;6.106;2024-01-15T07:43:48;10.13;;;5.15;;
73150;SDS011;61354;50.758;6.106;2024-01-15T07:46:32;8.70;;;4.38;;
73150;SDS011;61354;50.758;6.106;2024-01-15T07:49:16;14.32;;;7.70;;
73150;SDS011;61354;50.758;6.106;2024-01-15T07:52:01;15.40;;;7.72;;
73150;SDS011;61354;50.758;6.106;2024-01-15T07:54:45;10.73;;;4.32;;
73150;SDS011;61354;50.758;6.106;2024-01-15T07:57:29;13.32;;;6.32;;
73150;SDS011;61354;50.758;6.106;2024-01-15T08:00:13;8.20;;;4.60;;
73150;SDS011;61354;50.758;6.106;2024-01-15T08:02:57;9.05;;;4.57;;
73150;SDS011;61354;50.758;6.106;2024-01-15T08:05:41;8.75;;;4.95;;
73150;SDS011;61354;50.758;6.106;2024-01-15T08:08:25;7.82;;;4.22;;
73150;SDS011;61354;50.758;6.106;2024-01-15T08:11:12;8.20;;;4.07;;
73150;SDS011;61354;50.758;6.106;2024-01-15T08:13:56;13.57;;;4.18;;
73150;SDS011;61354;50.758;6.106;2024-01-15T08:16:40;8.98;;;4.63;;
73150;SDS011;61354;50.758;6.106;2024-01-15T08:19:24;6.82;;;3.97;;
73150;SDS011;61354;50.758;6.106;2024-01-15T08:22:08;10.15;;;4.28;;
73150;SDS011;61354;50.758;6.106;2024-01-15T08:24:53;8.98;;;4.65;;
73150;SDS011;61354;50.758;6.106;2024-01-15T08:27:38;11.40;;;4.78;;
73150;SDS011;61354;50.758;6.106;2024-01-15T08:30:23;7.32;;;3.72;;
73150;SDS011;61354;50.758;6.106;2024-01-15T08:33:11;9.40;;;5.00;;
73150;SDS011;61354;50.758;6.106;2024-01-15T08:35:55;9.77;;;5.32;;
73150;SDS011;61354;50.758;6.106;2024-01-15T08:38:39;4.95;;;3.05;;
73150;SDS011;61354;50.758;6.106;2024-01-15T08:41:23;9.88;;;4.80;;
73150;SDS011;61354;50.758;6.106;2024-01-15T08:44:07;7.35;;;4.03;;
73150;SDS011;61354;50.758;6.106;2024-01-15T08:46:51;5.50;;;3.83;;
73150;SDS011;61354;50.758;6.106;2024-01-15T08:49:35;5.35;;;2.80;;
73150;SDS011;61354;50.758;6.106;2024-01-15T08:52:20;7.45;;;3.75;;
73150;SDS011;61354;50.758;6.106;2024-01-15T08:55:04;5.13;;;2.92;;
73150;SDS011;61354;50.758;6.106;2024-01-15T08:57:48;8.70;;;4.75;;
73150;SDS011;61354;50.758;6.106;2024-01-15T09:00:32;10.65;;;4.40;;
73150;SDS011;61354;50.758;6.106;2024-01-15T09:03:16;6.35;;;2.78;;
73150;SDS011;61354;50.758;6.106;2024-01-15T09:06:00;9.82;;;4.40;;
73150;SDS011;61354;50.758;6.106;2024-01-15T09:08:44;8.30;;;4.25;;
73150;SDS011;61354;50.758;6.106;2024-01-15T09:11:28;5.63;;;3.35;;
73150;SDS011;61354;50.758;6.106;2024-01-15T09:14:12;7.35;;;3.72;;
73150;SDS011;61354;50.758;6.106;2024-01-15T09:16:56;5.82;;;2.95;;
73150;SDS011;61354;50.758;6.106;2024-01-15T09:19:40;8.32;;;3.67;;
73150;SDS011;61354;50.758;6.106;2024-01-15T09:22:25;10.30;;;5.00;;
73150;SDS011;61354;50.758;6.106;2024-01-15T09:25:09;9.80;;;3.92;;
73150;SDS011;61354;50.758;6.106;2024-01-15T09:27:53;8.63;;;4.28;;
73150;SDS011;61354;50.758;6.106;2024-01-15T09:30:37;7.35;;;3.47;;
73150;SDS011;61354;50.758;6.106;2024-01-15T09:33:21;8.25;;;3.55;;
73150;SDS011;61354;50.758;6.106;2024-01-15T09:36:05;5.60;;;3.35;;
73150;SDS011;61354;50.758;6.106;2024-01-15T09:38:49;7.72;;;2.95;;
73150;SDS011;61354;50.758;6.106;2024-01-15T09:41:34;6.38;;;3.50;;
73150;SDS011;61354;50.758;6.106;2024-01-15T09:44:19;6.05;;;3.55;;
73150;SDS011;61354;50.758;6.106;2024-01-15T09:47:04;7.68;;;3.65;;
73150;SDS011;61354;50.758;6.106;2024-01-15T09:49:49;5.53;;;2.22;;
73150;SDS011;61354;50.758;6.106;2024-01-15T09:52:33;7.47;;;2.40;;
73150;SDS011;61354;50.758;6.106;2024-01-15T09:55:18;6.32;;;2.72;;
73150;SDS011;61354;50.758;6.106;2024-01-15T09:58:02;10.75;;;3.25;;
73150;SDS011;61354;50.758;6.106;2024-01-15T10:00:47;6.70;;;3.45;;
73150;SDS011;61354;50.758;6.106;2024-01-15T10:03:33;5.55;;;3.20;;
73150;SDS011;61354;50.758;6.106;2024-01-15T10:06:17;5.22;;;2.83;;
73150;SDS011;61354;50.758;6.106;2024-01-15T10:09:01;12.43;;;4.55;;
73150;SDS011;61354;50.758;6.106;2024-01-15T10:11:47;5.00;;;2.95;;
73150;SDS011;61354;50.758;6.106;2024-01-15T10:14:31;4.97;;;2.65;;
73150;SDS011;61354;50.758;6.106;2024-01-15T10:17:16;5.05;;;2.97;;
73150;SDS011;61354;50.758;6.106;2024-01-15T10:20:00;5.93;;;3.45;;
73150;SDS011;61354;50.758;6.106;2024-01-15T10:22:45;8.18;;;2.72;;
73150;SDS011;61354;50.758;6.106;2024-01-15T10:25:30;6.53;;;3.63;;
73150;SDS011;61354;50.758;6.106;2024-01-15T10:28:14;8.77;;;3.53;;
73150;SDS011;61354;50.758;6.106;2024-01-15T10:30:58;6.78;;;3.67;;
73150;SDS011;61354;50.758;6.106;2024-01-15T10:33:44;6.85;;;3.10;;
73150;SDS011;61354;50.758;6.106;2024-01-15T10:36:28;4.85;;;2.60;;
73150;SDS011;61354;50.758;6.106;2024-01-15T10:39:13;8.68;;;4.18;;
73150;SDS011;61354;50.758;6.106;2024-01-15T10:41:57;5.15;;;2.50;;
73150;SDS011;61354;50.758;6.106;2024-01-15T10:44:41;8.13;;;2.72;;
73150;SDS011;61354;50.758;6.106;2024-01-15T10:47:27;6.43;;;3.28;;
73150;SDS011;61354;50.758;6.106;2024-01-15T10:50:11;5.38;;;2.80;;
73150;SDS011;61354;50.758;6.106;2024-01-15T10:52:55;3.65;;;2.08;;
73150;SDS011;61354;50.758;6.106;2024-01-15T10:55:41;3.17;;;1.80;;
73150;SDS011;61354;50.758;6.106;2024-01-15T10:58:26;8.80;;;2.53;;
73150;SDS011;61354;50.758;6.106;2024-01-15T11:01:14;4.05;;;1.98;;
73150;SDS011;61354;50.758;6.106;2024-01-15T11:03:58;4.50;;;2.72;;
73150;SDS011;61354;50.758;6.106;2024-01-15T11:06:43;3.20;;;2.03;;
73150;SDS011;61354;50.758;6.106;2024-01-15T11:09:28;6.05;;;2.17;;
73150;SDS011;61354;50.758;6.106;2024-01-15T11:12:13;8.07;;;3.60;;
73150;SDS011;61354;50.758;6.106;2024-01-15T11:15:03;4.68;;;2.45;;
73150;SDS011;61354;50.758;6.106;2024-01-15T11:18:00;3.65;;;2.05;;
73150;SDS011;61354;50.758;6.106;2024-01-15T11:21:19;3.80;;;2.15;;
73150;SDS011;61354;50.758;6.106;2024-01-15T11:24:01;2.95;;;1.95;;
73150;SDS011;61354;50.758;6.106;2024-01-15T11:29:39;5.93;;;1.90;;
73150;SDS011;61354;50.758;6.106;2024-01-15T11:32:23;4.80;;;2.15;;
73150;SDS011;61354;50.758;6.106;2024-01-15T11:35:17;5.22;;;2.10;;
73150;SDS011;61354;50.758;6.106;2024-01-15T11:38:02;9.23;;;2.47;;
73150;SDS011;61354;50.758;6.106;2024-01-15T11:40:47;3.08;;;1.90;;
73150;SDS011;61354;50.758;6.106;2024-01-15T11:43:32;4.22;;;1.75;;
73150;SDS011;61354;50.758;6.106;2024-01-15T11:46:17;2.28;;;1.30;;
73150;SDS011;61354;50.758;6.106;2024-01-15T11:49:03;1.60;;;1.13;;
73150;SDS011;61354;50.758;6.106;2024-01-15T11:51:49;4.65;;;1.95;;
73150;SDS011;61354;50.758;6.106;2024-01-15T11:54:34;4.03;;;2.42;;
73150;SDS011;61354;50.758;6.106;2024-01-15T11:57:25;4.55;;;1.63;;
73150;SDS011;61354;50.758;6.106;2024-01-15T12:00:25;3.83;;;2.25;;
73150;SDS011;61354;50.758;6.106;2024-01-15T12:03:09;5.45;;;2.10;;
73150;SDS011;61354;50.758;6.106;2024-01-15T12:05:53;2.80;;;1.65;;
73150;SDS011;61354;50.758;6.106;2024-01-15T12:08:38;1.52;;;1.42;;
73150;SDS011;61354;50.758;6.106;2024-01-15T12:11:22;4.10;;;1.45;;
73150;SDS011;61354;50.758;6.106;2024-01-15T12:14:09;5.38;;;2.10;;
73150;SDS011;61354;50.758;6.106;2024-01-15T12:16:53;5.65;;;1.40;;
73150;SDS011;61354;50.758;6.106;2024-01-15T12:19:38;4.43;;;2.08;;
73150;SDS011;61354;50.758;6.106;2024-01-15T12:22:22;4.10;;;1.92;;
73150;SDS011;61354;50.758;6.106;2024-01-15T12:25:06;3.08;;;1.50;;
73150;SDS011;61354;50.758;6.106;2024-01-15T12:27:51;4.90;;;1.88;;
73150;SDS011;61354;50.758;6.106;2024-01-15T12:30:35;1.83;;;1.20;;
73150;SDS011;61354;50.758;6.106;2024-01-15T12:33:20;2.00;;;1.40;;
73150;SDS011;61354;50.758;6.106;2024-01-15T12:36:04;3.13;;;1.60;;
73150;SDS011;61354;50.758;6.106;2024-01-15T12:38:49;2.90;;;1.40;;
73150;SDS011;61354;50.758;6.106;2024-01-15T12:41:33;4.63;;;2.15;;
73150;SDS011;61354;50.758;6.106;2024-01-15T12:44:18;4.15;;;1.45;;
73150;SDS011;61354;50.758;6.106;2024-01-15T12:47:02;4.47;;;1.70;;
73150;SDS011;61354;50.758;6.106;2024-01-15T12:49:47;4.22;;;1.95;;
73150;SDS011;61354;50.758;6.106;2024-01-15T12:52:33;3.35;;;1.67;;
73150;SDS011;61354;50.758;6.106;2024-01-15T12:55:18;4.68;;;1.73;;
73150;SDS011;61354;50.758;6.106;2024-01-15T12:58:02;3.38;;;1.83;;
73150;SDS011;61354;50.758;6.106;2024-01-15T13:00:46;7.57;;;1.75;;
73150;SDS011;61354;50.758;6.106;2024-01-15T13:03:30;2.88;;;1.25;;
73150;SDS011;61354;50.758;6.106;2024-01-15T13:06:14;1.65;;;1.05;;
73150;SDS011;61354;50.758;6.106;2024-01-15T13:09:57;3.33;;;1.63;;
73150;SDS011;61354;50.758;6.106;2024-01-15T13:13:40;2.78;;;1.50;;
73150;SDS011;61354;50.758;6.106;2024-01-15T13:17:24;3.17;;;1.25;;
73150;SDS011;61354;50.758;6.106;2024-01-15T13:21:07;2.88;;;2.55;;
73150;SDS011;61354;50.758;6.106;2024-01-15T13:24:53;1.60;;;1.15;;
73150;SDS011;61354;50.758;6.106;2024-01-15T13:28:35;1.95;;;1.13;;
73150;SDS011;61354;50.758;6.106;2024-01-15T13:32:24;2.90;;;1.50;;
73150;SDS011;61354;50.758;6.106;2024-01-15T13:36:07;2.03;;;1.33;;
73150;SDS011;61354;50.758;6.106;2024-01-15T13:39:53;3.67;;;1.40;;
73150;SDS011;61354;50.758;6.106;2024-01-15T13:43:35;3.22;;;1.63;;
73150;SDS011;61354;50.758;6.106;2024-01-15T13:47:19;1.55;;;1.20;;
73150;SDS011;61354;50.758;6.106;2024-01-15T13:51:02;1.77;;;1.23;;
73150;SDS011;61354;50.758;6.106;2024-01-15T13:54:47;1.48;;;1.00;;
73150;SDS011;61354;50.758;6.106;2024-01-15T13:58:31;2.00;;;1.08;;
73150;SDS011;61354;50.758;6.106;2024-01-15T14:02:15;3.08;;;1.33;;
73150;SDS011;61354;50.758;6.106;2024-01-15T14:05:58;1.48;;;0.90;;
73150;SDS011;61354;50.758;6.106;2024-01-15T14:09:40;3.10;;;1.30;;
73150;SDS011;61354;50.758;6.106;2024-01-15T14:13:23;1.77;;;0.98;;
73150;SDS011;61354;50.758;6.106;2024-01-15T14:17:05;1.33;;;0.90;;
73150;SDS011;61354;50.758;6.106;2024-01-15T14:20:48;3.17;;;1.67;;
73150;SDS011;61354;50.758;6.106;2024-01-15T14:23:37;1.70;;;1.25;;
73150;SDS011;61354;50.758;6.106;2024-01-15T14:26:22;1.15;;;1.00;;
73150;SDS011;61354;50.758;6.106;2024-01-15T14:29:11;2.53;;;1.15;;
73150;SDS011;61354;50.758;6.106;2024-01-15T14:35:40;2.40;;;1.15;;
73150;SDS011;61354;50.758;6.106;2024-01-15T14:39:10;2.60;;;1.00;;
73150;SDS011;61354;50.758;6.106;2024-01-15T14:42:56;1.65;;;0.68;;
73150;SDS011;61354;50.758;6.106;2024-01-15T14:45:56;1.92;;;0.80;;
73150;SDS011;61354;50.758;6.106;2024-01-15T14:48:41;3.78;;;0.85;;
73150;SDS011;61354;50.758;6.106;2024-01-15T14:51:39;1.70;;;1.17;;
73150;SDS011;61354;50.758;6.106;2024-01-15T14:54:28;4.78;;;1.77;;
73150;SDS011;61354;50.758;6.106;2024-01-15T14:57:52;2.95;;;1.50;;
73150;SDS011;61354;50.758;6.106;2024-01-15T15:00:37;2.05;;;1.10;;
73150;SDS011;61354;50.758;6.106;2024-01-15T15:04:14;1.10;;;0.88;;
73150;SDS011;61354;50.758;6.106;2024-01-15T15:07:29;2.45;;;1.23;;
73150;SDS011;61354;50.758;6.106;2024-01-15T15:10:37;2.30;;;1.17;;
73150;SDS011;61354;50.758;6.106;2024-01-15T15:13:50;2.83;;;1.20;;
73150;SDS011;61354;50.758;6.106;2024-01-15T15:16:34;3.03;;;1.27;;
73150;SDS011;61354;50.758;6.106;2024-01-15T15:19:19;3.88;;;1.30;;
73150;SDS011;61354;50.758;6.106;2024-01-15T15:22:28;2.65;;;1.15;;
73150;SDS011;61354;50.758;6.106;2024-01-15T15:25:15;1.33;;;1.08;;
73150;SDS011;61354;50.758;6.106;2024-01-15T15:28:01;1.63;;;0.95;;
73150;SDS011;61354;50.758;6.106;2024-01-15T15:31:43;2.40;;;1.33;;
73150;SDS011;61354;50.758;6.106;2024-01-15T15:34:28;0.70;;;0.70;;
73150;SDS011;61354;50.758;6.106;2024-01-15T15:37:18;2.25;;;0.85;;
73150;SDS011;61354;50.758;6.106;2024-01-15T15:40:23;2.55;;;1.20;;
73150;SDS011;61354;50.758;6.106;2024-01-15T15:43:07;2.40;;;1.10;;
73150;SDS011;61354;50.758;6.106;2024-01-15T15:45:52;3.53;;;1.02;;
73150;SDS011;61354;50.758;6.106;2024-01-15T15:48:37;1.27;;;1.10;;
73150;SDS011;61354;50.758;6.106;2024-01-15T15:51:21;3.10;;;1.30;;
73150;SDS011;61354;50.758;6.106;2024-01-15T15:54:06;1.35;;;0.80;;
73150;SDS011;61354;50.758;6.106;2024-01-15T15:56:51;5.35;;;1.92;;
73150;SDS011;61354;50.758;6.106;2024-01-15T15:59:35;3.55;;;1.65;;
73150;SDS011;61354;50.758;6.106;2024-01-15T16:02:20;3.70;;;1.50;;
73150;SDS011;61354;50.758;6.106;2024-01-15T16:05:05;2.83;;;1.55;;
73150;SDS011;61354;50.758;6.106;2024-01-15T16:07:53;3.25;;;1.40;;
73150;SDS011;61354;50.758;6.106;2024-01-15T16:10:37;1.42;;;0.95;;
73150;SDS011;61354;50.758;6.106;2024-01-15T16:13:22;3.85;;;1.90;;
73150;SDS011;61354;50.758;6.106;2024-01-15T16:16:06;4.05;;;2.00;;
73150;SDS011;61354;50.758;6.106;2024-01-15T16:18:50;3.28;;;1.67;;
73150;SDS011;61354;50.758;6.106;2024-01-15T16:21:34;3.33;;;1.65;;
73150;SDS011;61354;50.758;6.106;2024-01-15T16:24:19;2.15;;;1.25;;
73150;SDS011;61354;50.758;6.106;2024-01-15T16:27:05;2.75;;;1.58;;
73150;SDS011;61354;50.758;6.106;2024-01-15T16:29:49;3.88;;;2.03;;
73150;SDS011;61354;50.758;6.106;2024-01-15T16:32:33;1.63;;;1.17;;
73150;SDS011;61354;50.758;6.106;2024-01-15T16:35:17;4.72;;;1.98;;
73150;SDS011;61354;50.758;6.106;2024-01-15T16:38:01;3.72;;;2.05;;
73150;SDS011;61354;50.758;6.106;2024-01-15T16:40:45;3.78;;;2.20;;
73150;SDS011;61354;50.758;6.106;2024-01-15T16:43:29;1.95;;;1.25;;
73150;SDS011;61354;50.758;6.106;2024-01-15T16:46:14;2.83;;;1.90;;
73150;SDS011;61354;50.758;6.106;2024-01-15T16:48:58;3.67;;;1.92;;
73150;SDS011;61354;50.758;6.106;2024-01-15T16:51:44;4.82;;;1.90;;
73150;SDS011;61354;50.758;6.106;2024-01-15T16:54:28;3.20;;;1.88;;
73150;SDS011;61354;50.758;6.106;2024-01-15T16:57:11;4.22;;;2.45;;
73150;SDS011;61354;50.758;6.106;2024-01-15T16:59:55;3.25;;;1.75;;